createdAt,value
2023-05-11T00:02:26.502Z,70.12
2023-05-11T00:04:55.975Z,70.39
2023-05-11T00:07:24.530Z,70.05
2023-05-11T00:09:52.953Z,69.44
2023-05-11T00:12:21.606Z,69.74
2023-05-11T00:14:51.556Z,69.44
2023-05-11T00:17:20.830Z,69.35
2023-05-11T00:19:49.529Z,69.11
2023-05-11T00:22:18.015Z,69.07
2023-05-11T00:24:46.622Z,69.52
2023-05-11T00:27:15.599Z,69.71
2023-05-11T00:29:44.100Z,69.55
2023-05-11T00:32:14.005Z,70.18
2023-05-11T00:34:42.588Z,70.05
2023-05-11T00:37:11.073Z,70.35
2023-05-11T00:39:40.824Z,70.78
2023-05-11T00:42:09.394Z,70.64
2023-05-11T00:44:37.828Z,70.88
2023-05-11T00:47:06.600Z,70.89
2023-05-11T00:49:36.780Z,71.21
2023-05-11T00:52:05.776Z,71.52
2023-05-11T00:54:34.729Z,71.62
2023-05-11T00:57:03.391Z,71.52
2023-05-11T00:59:31.906Z,71.63
2023-05-11T01:02:00.805Z,71.68
2023-05-11T01:04:29.356Z,72.15
2023-05-11T01:07:06.234Z,71.91
2023-05-11T01:09:48.323Z,72.60
2023-05-11T01:12:27.755Z,72.02
2023-05-11T01:15:03.907Z,72.76
2023-05-11T01:17:45.410Z,72.41
2023-05-11T01:20:19.190Z,72.27
2023-05-11T01:23:35.275Z,74.00
2023-05-11T01:26:18.659Z,72.94
2023-05-11T01:29:03.836Z,74.03
2023-05-11T01:31:35.873Z,73.87
2023-05-11T01:34:07.752Z,73.59
2023-05-11T01:36:40.542Z,73.54
2023-05-11T01:39:12.158Z,73.40
2023-05-11T01:41:43.550Z,73.41
2023-05-11T01:44:13.491Z,73.99
2023-05-11T01:46:43.428Z,74.40
2023-05-11T01:49:14.220Z,74.44
2023-05-11T01:51:45.573Z,74.10
2023-05-11T01:54:15.185Z,74.17
2023-05-11T01:56:45.919Z,75.93
2023-05-11T01:59:15.795Z,75.33
2023-05-11T02:01:46.169Z,74.84
2023-05-11T02:04:16.054Z,75.33
2023-05-11T02:06:46.683Z,74.72
2023-05-11T02:09:17.895Z,74.59
2023-05-11T02:11:48.345Z,74.92
2023-05-11T02:14:19.153Z,75.21
2023-05-11T02:16:50.759Z,75.46
2023-05-11T02:19:20.171Z,75.11
2023-05-11T02:21:49.788Z,75.07
2023-05-11T02:24:20.815Z,74.89
2023-05-11T02:26:49.427Z,75.40
2023-05-11T02:29:18.112Z,75.53
2023-05-11T02:31:51.227Z,75.59
2023-05-11T02:34:25.153Z,75.75
2023-05-11T02:36:57.494Z,75.88
2023-05-11T02:39:33.758Z,75.72
2023-05-11T02:42:11.123Z,76.07
2023-05-11T02:44:41.977Z,76.66
2023-05-11T02:47:16.097Z,76.14
2023-05-11T02:49:46.211Z,76.40
2023-05-11T02:52:17.023Z,76.45
2023-05-11T02:54:46.312Z,77.24
2023-05-11T02:57:14.878Z,77.47
2023-05-11T02:59:43.907Z,77.62
2023-05-11T03:02:14.049Z,77.58
2023-05-11T03:04:42.616Z,77.92
2023-05-11T03:07:11.625Z,77.76
2023-05-11T03:09:40.104Z,77.41
2023-05-11T03:12:09.702Z,78.33
2023-05-11T03:14:40.027Z,78.88
2023-05-11T03:17:09.563Z,79.11
2023-05-11T03:19:42.184Z,78.63
2023-05-11T03:22:12.253Z,78.97
2023-05-11T03:24:41.656Z,79.07
2023-05-11T03:27:11.640Z,79.05
2023-05-11T03:29:43.935Z,78.60
2023-05-11T03:32:12.704Z,79.27
2023-05-11T03:34:42.732Z,79.61
2023-05-11T03:37:13.974Z,79.94
2023-05-11T03:39:45.418Z,79.91
2023-05-11T03:42:16.000Z,79.53
2023-05-11T03:44:47.748Z,79.17
2023-05-11T03:47:19.027Z,79.13
2023-05-11T03:49:50.171Z,79.91
2023-05-11T03:52:19.962Z,80.21
2023-05-11T03:54:48.833Z,79.77
2023-05-11T03:57:17.470Z,80.77
2023-05-11T03:59:46.074Z,79.96
2023-05-11T04:02:14.803Z,80.02
2023-05-11T04:04:43.353Z,81.32
2023-05-11T04:07:13.418Z,80.70
2023-05-11T04:09:41.895Z,80.04
2023-05-11T04:12:10.507Z,80.85
2023-05-11T04:14:39.106Z,80.78
2023-05-11T04:17:07.992Z,80.86
2023-05-11T04:19:36.483Z,81.55
2023-05-11T04:22:04.978Z,81.31
2023-05-11T04:24:34.843Z,80.76
2023-05-11T04:27:04.292Z,81.84
2023-05-11T04:29:32.824Z,82.80
2023-05-11T04:32:01.505Z,84.21
2023-05-11T04:34:30.194Z,83.02
2023-05-11T04:36:58.756Z,84.44
2023-05-11T04:39:27.195Z,84.23
2023-05-11T04:41:57.146Z,84.10
2023-05-11T04:44:25.631Z,83.62
2023-05-11T04:46:55.825Z,82.83
2023-05-11T04:49:24.456Z,82.95
2023-05-11T04:51:53.204Z,83.01
2023-05-11T04:54:21.833Z,85.82
2023-05-11T04:56:50.282Z,84.70
2023-05-11T04:59:20.339Z,83.69
2023-05-11T05:01:48.795Z,83.39
2023-05-11T05:04:17.347Z,84.15
2023-05-11T05:06:46.028Z,84.34
2023-05-11T05:09:14.540Z,85.94
2023-05-11T05:11:42.974Z,88.42
2023-05-11T05:14:11.560Z,86.42
2023-05-11T05:16:41.539Z,85.73
2023-05-11T05:19:13.028Z,85.23
2023-05-11T05:21:41.949Z,85.82
2023-05-11T05:24:12.468Z,89.13
2023-05-11T05:26:40.869Z,86.53
2023-05-11T05:29:09.383Z,88.14
2023-05-11T05:31:37.995Z,87.90
2023-05-11T05:34:08.038Z,88.29
2023-05-11T05:36:36.661Z,89.91
2023-05-11T05:39:09.137Z,88.06
2023-05-11T05:41:39.354Z,87.45
2023-05-11T05:44:07.995Z,87.56
2023-05-11T05:46:36.762Z,86.94
2023-05-11T05:49:05.418Z,86.31
2023-05-11T05:51:35.550Z,87.64
2023-05-11T05:54:04.040Z,87.26
2023-05-11T05:56:35.278Z,86.86
2023-05-11T05:59:03.795Z,87.51
2023-05-11T06:01:32.292Z,86.52
2023-05-11T06:04:01.292Z,87.78
2023-05-11T06:06:29.866Z,86.29
2023-05-11T06:08:59.870Z,85.51
2023-05-11T06:11:28.365Z,85.41
2023-05-11T06:13:56.909Z,85.77
2023-05-11T06:16:25.572Z,86.30
2023-05-11T06:18:54.235Z,86.88
2023-05-11T06:21:22.801Z,87.01
2023-05-11T06:23:51.428Z,85.68
2023-05-11T06:26:21.592Z,85.06
2023-05-11T06:28:49.969Z,85.55
2023-05-11T06:31:18.851Z,85.59
2023-05-11T06:33:47.390Z,84.90
2023-05-11T06:36:15.855Z,84.75
2023-05-11T06:38:44.333Z,84.25
2023-05-11T06:41:13.434Z,83.50
2023-05-11T06:43:43.701Z,85.05
2023-05-11T06:46:16.444Z,83.78
2023-05-11T06:48:45.037Z,82.49
2023-05-11T06:51:13.786Z,82.03
2023-05-11T06:53:42.399Z,82.25
2023-05-11T06:56:11.284Z,80.85
2023-05-11T06:58:39.827Z,81.30
2023-05-11T07:01:09.834Z,80.82
2023-05-11T07:03:38.709Z,80.00
2023-05-11T07:06:07.347Z,80.37
2023-05-11T07:08:36.086Z,78.81
2023-05-11T07:11:04.836Z,78.79
2023-05-11T07:13:33.420Z,78.71
2023-05-11T07:16:02.066Z,79.70
2023-05-11T07:18:32.028Z,78.76
2023-05-11T07:21:00.476Z,78.69
2023-05-11T07:23:29.222Z,77.80
2023-05-11T07:25:58.401Z,77.98
2023-05-11T07:28:26.916Z,77.99
2023-05-11T07:30:55.652Z,77.59
2023-05-11T07:33:24.166Z,76.74
2023-05-11T07:35:54.502Z,77.06
2023-05-11T07:38:23.008Z,77.49
2023-05-11T07:40:51.624Z,77.20
2023-05-11T07:43:20.089Z,76.43
2023-05-11T07:45:48.546Z,77.04
2023-05-11T07:48:18.338Z,76.16
2023-05-11T07:50:46.814Z,76.81
2023-05-11T07:53:18.269Z,76.83
2023-05-11T07:55:47.067Z,76.03
2023-05-11T07:58:15.707Z,75.92
2023-05-11T08:00:44.443Z,76.57
2023-05-11T08:03:13.385Z,76.48
2023-05-11T08:05:42.062Z,73.59
2023-05-11T08:08:10.646Z,74.34
2023-05-11T08:10:40.677Z,73.47
2023-05-11T08:13:09.268Z,72.02
2023-05-11T08:15:37.715Z,72.19
2023-05-11T08:18:07.008Z,71.69
2023-05-11T08:20:35.600Z,71.82
2023-05-11T08:23:04.107Z,70.14
2023-05-11T08:25:32.797Z,71.58
2023-05-11T08:28:02.704Z,69.67
2023-05-11T08:30:31.687Z,70.29
2023-05-11T08:33:00.470Z,70.63
2023-05-11T08:35:29.074Z,69.58
2023-05-11T08:37:57.575Z,68.66
2023-05-11T08:40:29.347Z,68.65
2023-05-11T08:42:58.291Z,67.46
2023-05-11T08:45:28.902Z,67.83
2023-05-11T08:47:57.720Z,66.99
2023-05-11T08:50:26.258Z,68.50
2023-05-11T08:52:54.780Z,67.68
2023-05-11T08:55:26.536Z,66.62
2023-05-11T08:58:02.192Z,66.36
2023-05-11T09:00:32.782Z,64.88
2023-05-11T09:03:02.760Z,65.41
2023-05-11T09:05:32.881Z,65.35
2023-05-11T09:08:04.291Z,65.92
2023-05-11T09:10:32.943Z,65.90
2023-05-11T09:13:01.430Z,63.64
2023-05-11T09:15:37.294Z,62.50
2023-05-11T09:18:06.555Z,61.62
2023-05-11T09:20:35.818Z,62.26
2023-05-11T09:23:04.384Z,63.19
2023-05-11T09:25:35.328Z,61.87
2023-05-11T09:28:04.129Z,63.34
2023-05-11T09:30:36.090Z,63.14
2023-05-11T09:33:04.760Z,63.57
2023-05-11T09:35:35.129Z,63.48
2023-05-11T09:38:06.386Z,58.98
2023-05-11T09:40:37.667Z,58.92
2023-05-11T09:43:18.209Z,58.27
2023-05-11T09:45:50.186Z,56.75
2023-05-11T09:48:29.963Z,57.32
2023-05-11T09:51:04.234Z,54.39
2023-05-11T09:53:41.301Z,52.08
2023-05-11T09:56:10.130Z,55.22
2023-05-11T09:58:49.462Z,54.48
2023-05-11T10:01:21.522Z,55.14
2023-05-11T10:04:02.740Z,52.42
2023-05-11T10:06:49.461Z,50.40
2023-05-11T10:09:20.550Z,50.41
2023-05-11T10:11:49.394Z,51.92
2023-05-11T10:14:20.340Z,50.26
2023-05-11T10:16:50.620Z,51.59
2023-05-11T10:19:20.189Z,50.75
2023-05-11T10:21:49.332Z,50.52
2023-05-11T10:24:20.241Z,50.91
2023-05-11T10:26:49.520Z,49.63
2023-05-11T10:29:21.645Z,49.48
2023-05-11T10:31:57.377Z,46.99
2023-05-11T10:34:26.980Z,46.60
2023-05-11T10:36:57.723Z,42.50
2023-05-11T10:39:26.697Z,44.60
2023-05-11T10:42:07.060Z,44.01
2023-05-11T10:45:08.082Z,42.05
2023-05-11T10:48:03.171Z,39.78
2023-05-11T10:50:53.759Z,42.77
2023-05-11T10:53:39.347Z,44.83
2023-05-11T10:56:28.496Z,45.03
2023-05-11T10:59:14.904Z,44.48
2023-05-11T11:01:45.512Z,45.00
2023-05-11T11:04:15.988Z,46.07
2023-05-11T11:06:45.298Z,44.05
2023-05-11T11:09:16.229Z,44.92
2023-05-11T11:11:47.076Z,45.60
2023-05-11T11:14:17.058Z,45.68
2023-05-11T11:17:27.978Z,45.06
2023-05-11T11:19:58.138Z,44.97
2023-05-11T11:22:47.598Z,45.04
2023-05-11T11:25:18.070Z,45.45
2023-05-11T11:28:00.349Z,44.42
2023-05-11T11:30:31.030Z,44.18
2023-05-11T11:33:33.805Z,45.55
2023-05-11T11:36:03.998Z,44.81
2023-05-11T11:38:34.215Z,44.85
2023-05-11T11:41:03.710Z,45.18
2023-05-11T11:43:46.929Z,43.21
2023-05-11T11:46:29.149Z,44.52
2023-05-11T11:49:10.919Z,43.43
2023-05-11T11:51:42.018Z,42.99
2023-05-11T11:54:10.966Z,42.82
2023-05-11T11:56:47.450Z,43.24
2023-05-11T11:59:16.631Z,43.71
2023-05-11T12:01:46.907Z,43.74
2023-05-11T12:04:42.648Z,42.68
2023-05-11T12:07:14.093Z,42.26
2023-05-11T12:09:42.753Z,41.89
2023-05-11T12:12:12.574Z,43.05
2023-05-11T12:14:49.232Z,42.65
2023-05-11T12:17:26.254Z,42.46
2023-05-11T12:19:54.783Z,44.34
2023-05-11T12:22:27.981Z,46.45
2023-05-11T12:25:00.524Z,46.23
2023-05-11T12:27:29.195Z,46.85
2023-05-11T12:29:58.863Z,47.34
2023-05-11T12:32:29.465Z,47.69
2023-05-11T12:35:02.787Z,48.04
2023-05-11T12:37:33.946Z,47.21
2023-05-11T12:40:02.368Z,48.00
2023-05-11T12:42:35.126Z,48.60
2023-05-11T12:45:04.377Z,48.58
2023-05-11T12:47:33.391Z,48.49
2023-05-11T12:50:01.965Z,48.21
2023-05-11T12:52:30.484Z,49.13
2023-05-11T12:55:01.339Z,48.95
2023-05-11T12:57:33.770Z,49.62
2023-05-11T13:00:12.014Z,48.97
2023-05-11T13:02:50.325Z,49.41
2023-05-11T13:05:20.820Z,49.02
2023-05-11T13:07:50.052Z,47.73
2023-05-11T13:10:25.910Z,48.04
2023-05-11T13:12:54.851Z,46.83
2023-05-11T13:15:25.127Z,47.69
2023-05-11T13:17:59.331Z,45.51
2023-05-11T13:20:30.074Z,46.42
2023-05-11T13:23:06.054Z,45.90
2023-05-11T13:25:37.305Z,46.54
2023-05-11T13:28:06.236Z,46.31
2023-05-11T13:30:35.408Z,44.70
2023-05-11T13:33:04.637Z,43.83
2023-05-11T13:35:33.123Z,43.65
2023-05-11T13:38:02.345Z,43.26
2023-05-11T13:40:30.987Z,43.20
2023-05-11T13:43:01.576Z,42.83
2023-05-11T13:45:30.344Z,43.74
2023-05-11T13:47:58.923Z,43.43
2023-05-11T13:50:28.202Z,42.62
2023-05-11T13:52:56.740Z,43.57
2023-05-11T13:55:25.393Z,43.54
2023-05-11T13:57:53.897Z,44.56
2023-05-11T14:00:24.215Z,43.39
2023-05-11T14:02:53.709Z,43.54
2023-05-11T14:05:22.660Z,43.76
2023-05-11T14:07:51.191Z,43.66
2023-05-11T14:10:20.201Z,44.38
2023-05-11T14:12:48.806Z,44.62
2023-05-11T14:15:17.656Z,44.85
2023-05-11T14:17:47.980Z,45.60
2023-05-11T14:20:16.918Z,46.25
2023-05-11T14:22:45.635Z,46.80
2023-05-11T14:25:14.061Z,46.66
2023-05-11T14:27:42.496Z,46.73
2023-05-11T14:30:11.929Z,46.90
2023-05-11T14:32:40.433Z,46.38
2023-05-11T14:35:11.015Z,46.21
2023-05-11T14:37:39.757Z,46.21
2023-05-11T14:40:09.322Z,46.23
2023-05-11T14:42:38.094Z,46.34
2023-05-11T14:45:08.283Z,46.15
2023-05-11T14:47:37.297Z,45.36
2023-05-11T14:50:06.613Z,44.74
2023-05-11T14:52:36.948Z,44.79
2023-05-11T14:55:06.014Z,44.96
2023-05-11T14:57:34.653Z,45.36
2023-05-11T15:00:03.582Z,44.70
2023-05-11T15:02:32.180Z,42.81
2023-05-11T15:05:00.826Z,42.08
2023-05-11T15:07:32.610Z,41.36
2023-05-11T15:10:02.723Z,41.62
2023-05-11T15:12:32.962Z,40.80
2023-05-11T15:15:01.637Z,41.33
2023-05-11T15:17:30.811Z,41.55
2023-05-11T15:19:59.355Z,40.98
2023-05-11T15:22:28.020Z,39.71
2023-05-11T15:24:56.876Z,38.82
2023-05-11T15:27:26.874Z,38.39
2023-05-11T15:29:56.221Z,39.57
2023-05-11T15:32:24.845Z,38.10
2023-05-11T15:34:59.844Z,39.10
2023-05-11T15:37:29.320Z,39.20
2023-05-11T15:39:57.735Z,38.32
2023-05-11T15:42:27.577Z,38.91
2023-05-11T15:44:56.083Z,38.65
2023-05-11T15:47:24.584Z,40.07
2023-05-11T15:49:53.222Z,40.22
2023-05-11T15:52:22.452Z,40.29
2023-05-11T15:54:50.975Z,39.93
2023-05-11T15:57:19.805Z,40.64
2023-05-11T15:59:49.720Z,41.03
2023-05-11T16:02:18.453Z,41.28
2023-05-11T16:04:47.484Z,40.77
2023-05-11T16:07:15.972Z,41.34
2023-05-11T16:09:45.041Z,42.12
2023-05-11T16:12:13.639Z,42.18
2023-05-11T16:14:42.091Z,41.58
2023-05-11T16:17:12.083Z,41.51
2023-05-11T16:19:40.760Z,40.68
2023-05-11T16:22:09.475Z,40.60
2023-05-11T16:24:38.084Z,40.69
2023-05-11T16:27:07.226Z,41.28
2023-05-11T16:29:35.922Z,40.62
2023-05-11T16:32:05.060Z,41.49
2023-05-11T16:34:36.621Z,41.16
2023-05-11T16:37:05.480Z,41.71
2023-05-11T16:39:34.285Z,40.95
2023-05-11T16:42:03.453Z,41.37
2023-05-11T16:44:32.125Z,41.42
2023-05-11T16:47:02.604Z,42.04
2023-05-11T16:49:31.445Z,41.44
2023-05-11T16:52:02.471Z,40.89
2023-05-11T16:54:31.230Z,39.60
2023-05-11T16:57:01.352Z,40.32
2023-05-11T16:59:29.934Z,40.86
2023-05-11T17:01:58.536Z,39.61
2023-05-11T17:04:27.316Z,41.04
2023-05-11T17:06:55.914Z,40.62
2023-05-11T17:09:26.268Z,40.45
2023-05-11T17:11:55.756Z,40.55
2023-05-11T17:14:25.866Z,40.54
2023-05-11T17:16:54.377Z,40.80
2023-05-11T17:19:22.919Z,40.79
2023-05-11T17:21:51.609Z,41.02
2023-05-11T17:24:20.142Z,41.37
2023-05-11T17:26:50.580Z,41.19
2023-05-11T17:29:19.046Z,40.94
2023-05-11T17:31:49.297Z,41.27
2023-05-11T17:34:18.495Z,41.67
2023-05-11T17:36:47.084Z,42.16
2023-05-11T17:39:16.580Z,42.50
2023-05-11T17:41:45.383Z,41.63
2023-05-11T17:44:15.502Z,41.34
2023-05-11T17:46:44.047Z,41.60
2023-05-11T17:49:12.595Z,41.29
2023-05-11T17:51:41.114Z,41.38
2023-05-11T17:54:09.702Z,40.42
2023-05-11T17:56:38.318Z,40.58
2023-05-11T17:59:06.819Z,40.71
2023-05-11T18:01:36.848Z,40.72
2023-05-11T18:04:06.391Z,41.23
2023-05-11T18:06:34.955Z,41.46
2023-05-11T18:09:05.361Z,41.21
2023-05-11T18:11:34.187Z,41.74
2023-05-11T18:14:02.577Z,41.13
2023-05-11T18:16:31.160Z,41.49
2023-05-11T18:19:01.534Z,41.44
2023-05-11T18:21:30.114Z,41.20
2023-05-11T18:23:58.797Z,42.37
2023-05-11T18:26:27.755Z,42.16
2023-05-11T18:28:56.387Z,42.42
2023-05-11T18:31:24.959Z,42.30
2023-05-11T18:33:55.976Z,42.79
2023-05-11T18:36:26.457Z,42.70
2023-05-11T18:38:55.319Z,43.02
2023-05-11T18:41:24.093Z,43.36
2023-05-11T18:43:53.188Z,43.76
2023-05-11T18:46:21.833Z,44.47
2023-05-11T18:48:53.029Z,45.13
2023-05-11T18:51:23.058Z,45.05
2023-05-11T18:53:53.301Z,44.84
2023-05-11T18:56:22.541Z,45.12
2023-05-11T18:58:51.024Z,45.35
2023-05-11T19:01:24.177Z,45.17
2023-05-11T19:03:57.344Z,45.94
2023-05-11T19:06:25.909Z,46.02
2023-05-11T19:08:55.910Z,45.73
2023-05-11T19:11:25.898Z,46.43
2023-05-11T19:13:54.477Z,46.70
2023-05-11T19:16:23.093Z,46.99
2023-05-11T19:18:51.584Z,46.36
2023-05-11T19:21:20.185Z,47.59
2023-05-11T19:23:48.608Z,47.08
2023-05-11T19:26:18.494Z,47.60
2023-05-11T19:28:47.393Z,47.61
2023-05-11T19:31:16.228Z,47.56
2023-05-11T19:33:45.033Z,47.97
2023-05-11T19:36:13.922Z,48.31
2023-05-11T19:38:42.510Z,48.16
2023-05-11T19:41:11.207Z,47.97
2023-05-11T19:43:41.628Z,48.38
2023-05-11T19:46:10.426Z,48.41
2023-05-11T19:48:38.907Z,48.75
2023-05-11T19:51:07.863Z,48.73
2023-05-11T19:53:37.139Z,48.84
2023-05-11T19:56:06.193Z,49.24
2023-05-11T19:58:34.697Z,49.36
2023-05-11T20:01:05.155Z,49.64
2023-05-11T20:03:34.767Z,49.72
2023-05-11T20:06:03.646Z,50.08
2023-05-11T20:08:32.130Z,50.39
2023-05-11T20:11:00.706Z,50.78
2023-05-11T20:13:29.133Z,50.95
2023-05-11T20:15:57.843Z,50.96
2023-05-11T20:18:28.486Z,51.44
2023-05-11T20:20:58.346Z,51.75
2023-05-11T20:23:28.210Z,51.89
2023-05-11T20:25:56.712Z,52.14
2023-05-11T20:28:27.458Z,52.35
2023-05-11T20:30:57.177Z,52.58
2023-05-11T20:35:59.204Z,53.44
2023-05-11T20:38:27.698Z,53.16
2023-05-11T20:40:58.184Z,53.50
2023-05-11T20:43:27.412Z,53.59
2023-05-11T20:45:56.096Z,53.99
2023-05-11T20:48:38.546Z,54.18
2023-05-11T20:51:10.272Z,55.15
2023-05-11T20:53:38.747Z,55.14
2023-05-11T20:56:08.614Z,55.08
2023-05-11T20:58:37.735Z,55.57
2023-05-11T21:01:07.094Z,55.75
2023-05-11T21:03:35.677Z,56.09
2023-05-11T21:06:04.309Z,56.06
2023-05-11T21:08:34.238Z,56.20
2023-05-11T21:11:02.768Z,56.76
2023-05-11T21:13:31.827Z,56.82
2023-05-11T21:16:00.338Z,56.82
2023-05-11T21:18:32.268Z,57.60
2023-05-11T21:21:00.841Z,57.58
2023-05-11T21:23:31.116Z,58.05
2023-05-11T21:26:01.136Z,58.42
2023-05-11T21:28:29.823Z,58.12
2023-05-11T21:30:58.774Z,58.63
2023-05-11T21:33:27.395Z,58.55
2023-05-11T21:35:56.657Z,58.60
2023-05-11T21:38:25.300Z,58.92
2023-05-11T21:40:54.201Z,59.94
2023-05-11T21:43:24.731Z,59.46
2023-05-11T21:45:53.294Z,59.99
2023-05-11T21:48:22.523Z,59.71
2023-05-11T21:50:54.058Z,60.65
2023-05-11T21:53:23.482Z,59.79
2023-05-11T21:55:52.061Z,60.65
2023-05-11T21:58:20.826Z,60.29
2023-05-11T22:00:51.202Z,61.85
2023-05-11T22:03:19.741Z,61.34
2023-05-11T22:05:49.099Z,63.10
2023-05-11T22:08:17.521Z,63.46
2023-05-11T22:10:47.078Z,62.83
2023-05-11T22:13:15.999Z,63.11
2023-05-11T22:15:44.732Z,62.38
2023-05-11T22:18:14.895Z,62.83
2023-05-11T22:20:43.399Z,63.06
2023-05-11T22:23:13.540Z,63.01
2023-05-11T22:25:43.642Z,62.86
2023-05-11T22:28:12.060Z,63.05
2023-05-11T22:30:40.588Z,64.07
2023-05-11T22:33:09.071Z,63.55
2023-05-11T22:35:40.078Z,63.98
2023-05-11T22:38:08.881Z,64.48
2023-05-11T22:40:37.615Z,63.96
2023-05-11T22:43:06.023Z,63.75
2023-05-11T22:45:34.531Z,64.17
2023-05-11T22:48:03.261Z,65.50
2023-05-11T22:50:31.964Z,64.78
2023-05-11T22:53:01.950Z,65.45
2023-05-11T22:55:30.426Z,65.63
2023-05-11T22:57:58.975Z,65.91
2023-05-11T23:00:27.596Z,66.88
2023-05-11T23:02:56.291Z,68.28
2023-05-11T23:05:24.884Z,67.99
2023-05-11T23:07:53.316Z,69.13
2023-05-11T23:10:23.200Z,68.43
2023-05-11T23:12:51.671Z,69.14
2023-05-11T23:15:20.306Z,69.25
2023-05-11T23:17:48.815Z,69.12
2023-05-11T23:20:18.030Z,69.29
2023-05-11T23:22:46.710Z,69.04
2023-05-11T23:25:15.144Z,68.61
2023-05-11T23:27:45.326Z,67.79
2023-05-11T23:30:14.315Z,68.68
2023-05-11T23:32:42.863Z,69.43
2023-05-11T23:35:12.209Z,68.66
2023-05-11T23:37:40.852Z,68.33
2023-05-11T23:40:10.301Z,68.83
2023-05-11T23:42:39.531Z,70.36
2023-05-11T23:45:10.470Z,69.26
2023-05-11T23:47:39.815Z,68.16
2023-05-11T23:50:09.796Z,68.95
2023-05-11T23:52:38.422Z,68.74
2023-05-11T23:55:09.412Z,70.34
2023-05-11T23:57:37.928Z,69.92
